Time;durP1;ratioP1;P1;durP2;ratioP2;P2;SDS_P1;SDS_P2;PMS_P1;PMS_P2;Temp;Humidity;BMP_temperature;BMP_pressure;BME280_temperature;BME280_humidity;BME280_pressure;Samples;Min_cycle;Max_cycle;Signal;HPM_P1;HPM_P2
2022/01/29 00:00:16;;;;;;;2.42;0.75;;;;;;;2.75;57.35;100823.63;4473488;31;33955;-73
2022/01/29 00:02:46;;;;;;;2.12;0.77;;;;;;;2.80;56.77;100826.81;4486917;31;33554;-73
2022/01/29 00:05:14;;;;;;;5.45;1.40;;;;;;;2.88;56.59;100816.16;4486952;31;33935;-73
2022/01/29 00:07:45;;;;;;;5.07;1.20;;;;;;;3.01;56.37;100825.97;4501179;31;33185;-73
2022/01/29 00:10:13;;;;;;;3.85;1.20;;;;;;;3.04;56.09;100839.25;4501103;31;33880;-73
2022/01/29 00:12:42;;;;;;;9.63;2.42;;;;;;;2.75;56.51;100826.34;4501135;31;34494;-74
2022/01/29 00:15:10;;;;;;;2.62;1.00;;;;;;;3.00;55.80;100830.53;4486772;31;34107;-73
2022/01/29 00:17:38;;;;;;;3.95;1.17;;;;;;;2.59;56.60;100824.09;4473635;31;32078;-73
2022/01/29 00:20:06;;;;;;;3.65;1.10;;;;;;;2.74;56.03;100849.00;4500883;31;33718;-74
2022/01/29 00:22:34;;;;;;;4.55;1.65;;;;;;;2.38;57.18;100825.91;4486782;31;34493;-73
2022/01/29 00:25:02;;;;;;;3.72;1.10;;;;;;;2.81;56.52;100833.94;4486621;31;33826;-73
2022/01/29 00:27:34;;;;;;;6.22;2.05;;;;;;;2.64;57.07;100856.22;4486596;31;33187;-73
2022/01/29 00:30:13;;;;;;;5.12;1.58;;;;;;;3.11;56.03;100854.88;4486449;31;32299;-73
2022/01/29 00:32:59;;;;;;;2.28;0.90;;;;;;;3.05;56.36;100851.81;4487327;31;34201;-73
2022/01/29 00:35:27;;;;;;;11.60;4.93;;;;;;;3.08;56.53;100838.00;4486820;31;34813;-73
2022/01/29 00:37:54;;;;;;;5.80;1.98;;;;;;;3.43;55.84;100837.59;4486241;31;33480;-73
2022/01/29 00:40:22;;;;;;;8.15;2.85;;;;;;;2.80;57.24;100853.06;4486357;31;33788;-74
2022/01/29 00:42:50;;;;;;;3.97;1.20;;;;;;;3.17;57.21;100856.19;4500519;31;34603;-74
2022/01/29 00:45:17;;;;;;;7.40;2.42;;;;;;;2.30;59.84;100861.75;4474334;31;32750;-73
2022/01/29 00:47:45;;;;;;;3.42;1.37;;;;;;;2.54;59.73;100850.72;4502670;31;33189;-73
2022/01/29 00:50:13;;;;;;;3.17;1.10;;;;;;;2.40;60.41;100848.31;4488209;31;32135;-73
2022/01/29 00:52:41;;;;;;;4.50;1.23;;;;;;;2.96;58.95;100857.03;4502473;31;34479;-73
2022/01/29 00:55:09;;;;;;;3.58;1.37;;;;;;;2.83;59.80;100869.06;4488439;31;34609;-73
2022/01/29 00:57:40;;;;;;;4.50;1.10;;;;;;;2.43;61.00;100866.16;4487686;31;32721;-73
2022/01/29 01:00:10;;;;;;;4.68;1.67;;;;;;;2.92;60.00;100857.44;4488902;31;33572;-73
2022/01/29 01:02:38;;;;;;;4.12;1.50;;;;;;;2.98;59.69;100865.03;4488563;31;34083;-73
2022/01/29 01:05:09;;;;;;;6.12;2.08;;;;;;;2.45;61.29;100866.91;4488058;31;34746;-73
2022/01/29 01:07:37;;;;;;;6.65;1.65;;;;;;;2.23;62.19;100871.37;4488127;31;33567;-73
2022/01/29 01:10:06;;;;;;;4.70;1.50;;;;;;;2.43;61.63;100871.59;4475439;31;32510;-73
2022/01/29 01:12:34;;;;;;;4.57;1.60;;;;;;;2.42;61.75;100876.12;4488451;31;34731;-73
2022/01/29 01:15:03;;;;;;;6.03;1.77;;;;;;;2.62;61.24;100888.00;4502517;31;33924;-73
2022/01/29 01:17:30;;;;;;;5.62;1.50;;;;;;;2.47;61.26;100864.91;4502808;31;33180;-73
2022/01/29 01:19:58;;;;;;;5.87;1.67;;;;;;;2.56;61.10;100889.41;4488343;31;33718;-74
2022/01/29 01:22:26;;;;;;;5.40;1.90;;;;;;;2.71;60.91;100899.91;4488573;31;35406;-73
2022/01/29 01:24:56;;;;;;;4.80;1.33;;;;;;;2.56;61.13;100883.97;4488548;31;33997;-73
2022/01/29 01:27:24;;;;;;;5.18;1.60;;;;;;;2.27;62.73;100894.53;4475014;31;32136;-73
2022/01/29 01:29:52;;;;;;;5.90;1.98;;;;;;;2.40;62.03;100893.50;4502392;31;34105;-74
2022/01/29 01:32:19;;;;;;;3.97;1.60;;;;;;;2.57;61.91;100895.69;4488423;31;34451;-73
2022/01/29 01:34:51;;;;;;;3.25;1.30;;;;;;;2.22;62.72;100893.19;4488197;31;33899;-73
2022/01/29 01:37:33;;;;;;;5.75;2.05;;;;;;;2.18;62.87;100895.28;4475701;31;33192;-73
2022/01/29 01:40:01;;;;;;;5.90;2.03;;;;;;;2.22;63.25;100888.63;4489900;31;34493;-73
2022/01/29 01:42:29;;;;;;;5.32;1.40;;;;;;;2.27;62.74;100886.41;4502371;31;34430;-73
2022/01/29 01:45:02;;;;;;;6.20;1.90;;;;;;;2.03;63.64;100888.41;4488695;31;34584;-73
2022/01/29 01:47:29;;;;;;;7.03;1.95;;;;;;;2.29;62.39;100891.69;4488129;31;34026;-73
2022/01/29 01:49:57;;;;;;;6.03;1.87;;;;;;;2.66;61.18;100884.03;4502381;31;34280;-74
2022/01/29 01:52:27;;;;;;;5.97;2.37;;;;;;;2.26;61.69;100890.09;4487915;31;35051;-73
2022/01/29 01:54:55;;;;;;;6.65;1.80;;;;;;;2.41;61.08;100873.56;4488333;31;34048;-74
2022/01/29 01:57:23;;;;;;;6.00;2.20;;;;;;;2.15;61.66;100891.94;4487411;31;33593;-74
2022/01/29 01:59:50;;;;;;;6.95;1.92;;;;;;;2.42;60.76;100878.00;4488055;31;34623;-73
2022/01/29 02:02:18;;;;;;;5.47;1.65;;;;;;;2.22;61.48;100872.38;4502276;31;34527;-73
2022/01/29 02:04:47;;;;;;;5.15;1.70;;;;;;;2.04;61.80;100873.88;4502403;31;34460;-73
2022/01/29 02:07:14;;;;;;;6.07;2.00;;;;;;;1.97;60.41;100872.66;4488258;31;33249;-73
2022/01/29 02:09:42;;;;;;;5.03;1.65;;;;;;;2.07;60.45;100864.63;4488010;31;33647;-73
2022/01/29 02:12:11;;;;;;;4.62;1.20;;;;;;;2.04;60.33;100865.75;4475170;31;34949;-74
2022/01/29 02:14:40;;;;;;;3.83;1.50;;;;;;;2.40;57.78;100861.88;4502046;31;33948;-73
2022/01/29 02:17:09;;;;;;;4.32;1.30;;;;;;;2.39;58.37;100870.13;4487936;31;33427;-73
2022/01/29 02:19:39;;;;;;;4.80;1.48;;;;;;;2.59;57.57;100874.72;4488061;31;33675;-73
2022/01/29 02:22:07;;;;;;;8.65;1.83;;;;;;;2.57;57.32;100876.72;4474756;31;32875;-73
2022/01/29 02:24:36;;;;;;;4.43;1.60;;;;;;;2.39;57.70;100872.81;4487814;31;34652;-73
2022/01/29 02:27:08;;;;;;;6.50;1.60;;;;;;;2.21;58.62;100876.06;4487907;31;33417;-73
2022/01/29 02:29:38;;;;;;;5.53;1.40;;;;;;;2.22;58.07;100880.50;4502049;31;33605;-73
2022/01/29 02:32:06;;;;;;;4.87;1.83;;;;;;;2.39;56.24;100881.81;4487850;31;34387;-73
2022/01/29 02:34:34;;;;;;;4.90;1.70;;;;;;;2.63;55.28;100884.28;4487646;31;32225;-73
2022/01/29 02:37:04;;;;;;;7.00;1.75;;;;;;;2.50;56.35;100873.66;4501858;31;33400;-73
2022/01/29 02:39:31;;;;;;;6.57;1.80;;;;;;;2.41;56.29;100862.72;4475131;31;34548;-73
2022/01/29 02:42:06;;;;;;;6.40;1.40;;;;;;;2.43;56.94;100882.41;4488141;31;34427;-73
2022/01/29 02:44:34;;;;;;;8.75;2.17;;;;;;;2.37;56.73;100881.06;4487037;31;34612;-73
2022/01/29 02:47:25;;;;;;;7.35;2.20;;;;;;;2.29;57.66;100878.13;4474683;31;33688;-73
2022/01/29 02:49:49;;;;;;;4.68;1.08;;;;;;;2.29;57.31;100892.53;4501780;31;33905;-73
2022/01/29 02:52:16;;;;;;;6.80;1.60;;;;;;;2.40;56.91;100879.97;4501618;31;34356;-74
2022/01/29 02:54:44;;;;;;;8.60;2.00;;;;;;;2.56;56.58;100888.53;4501913;31;34715;-73
2022/01/29 02:57:12;;;;;;;4.95;1.45;;;;;;;2.78;55.75;100887.56;4487546;31;34155;-73
2022/01/29 02:59:39;;;;;;;5.03;1.65;;;;;;;2.61;56.20;100889.84;4487694;31;35160;-73
2022/01/29 03:02:07;;;;;;;6.12;1.42;;;;;;;2.60;56.41;100895.44;4487688;31;34423;-73
2022/01/29 03:04:35;;;;;;;4.93;1.60;;;;;;;2.52;55.74;100889.78;4487647;31;34913;-73
2022/01/29 03:07:02;;;;;;;5.62;1.37;;;;;;;2.66;55.44;100884.03;4487364;31;34062;-74
2022/01/29 03:09:30;;;;;;;4.68;1.42;;;;;;;2.54;55.44;100888.66;4501824;31;33684;-73
2022/01/29 03:11:59;;;;;;;3.97;1.30;;;;;;;2.43;54.99;100887.84;4501675;31;34378;-73
2022/01/29 03:14:26;;;;;;;6.00;1.48;;;;;;;3.01;53.85;100893.75;4501673;31;34739;-73
2022/01/29 03:16:53;;;;;;;7.55;1.80;;;;;;;2.51;54.88;100888.91;4487329;31;34131;-74
2022/01/29 03:19:21;;;;;;;7.07;1.55;;;;;;;2.28;55.95;100901.66;4487474;31;34401;-74
2022/01/29 03:21:49;;;;;;;6.60;1.60;;;;;;;2.57;54.67;100910.09;4487712;31;34508;-73
2022/01/29 03:24:16;;;;;;;5.10;1.73;;;;;;;2.59;54.38;100909.97;4487749;31;33967;-73
2022/01/29 03:26:44;;;;;;;4.47;1.30;;;;;;;2.33;54.50;100911.25;4501368;31;33459;-73
2022/01/29 03:29:13;;;;;;;5.45;1.40;;;;;;;2.33;54.01;100916.66;4501498;31;33287;-73
2022/01/29 03:31:41;;;;;;;3.67;1.02;;;;;;;2.60;53.59;100912.50;4487257;31;34115;-73
2022/01/29 03:34:09;;;;;;;7.82;1.70;;;;;;;2.55;53.03;100912.06;4487348;31;34535;-73
2022/01/29 03:36:36;;;;;;;4.87;1.30;;;;;;;2.44;52.96;100927.50;4486927;31;32070;-73
2022/01/29 03:39:04;;;;;;;4.78;1.23;;;;;;;2.51;52.40;100928.69;4501323;31;33675;-73
2022/01/29 03:41:32;;;;;;;2.25;1.00;;;;;;;2.72;51.96;100929.59;4487005;31;33986;-73
2022/01/29 03:44:05;;;;;;;7.75;1.40;;;;;;;2.86;51.18;100923.03;4487392;31;34844;-73
2022/01/29 03:46:33;;;;;;;6.62;1.75;;;;;;;2.80;51.75;100924.41;4487543;31;33804;-73
2022/01/29 03:49:01;;;;;;;3.62;1.30;;;;;;;2.57;52.01;100923.62;4487219;31;33716;-73
2022/01/29 03:51:28;;;;;;;5.28;1.27;;;;;;;2.83;51.71;100916.00;4501307;31;35364;-73
2022/01/29 03:53:56;;;;;;;6.47;2.10;;;;;;;2.97;50.68;100907.56;4487105;31;34200;-74
2022/01/29 03:56:24;;;;;;;8.68;2.12;;;;;;;2.87;50.77;100914.75;4501602;31;33109;-74
2022/01/29 03:58:51;;;;;;;7.05;1.90;;;;;;;2.78;50.50;100904.69;4486546;31;34622;-73
2022/01/29 04:01:19;;;;;;;3.70;1.40;;;;;;;2.63;50.94;100911.41;4501217;31;34436;-73
2022/01/29 04:03:47;;;;;;;5.78;1.90;;;;;;;2.85;50.31;100908.59;4474637;31;34217;-73
2022/01/29 04:06:17;;;;;;;5.65;1.85;;;;;;;2.80;50.15;100916.25;4487145;31;34213;-74
2022/01/29 04:08:45;;;;;;;6.60;1.70;;;;;;;3.00;50.01;100936.28;4486897;31;33830;-74
2022/01/29 04:11:14;;;;;;;4.10;1.33;;;;;;;2.69;50.39;100927.16;4486986;31;34650;-73
2022/01/29 04:13:44;;;;;;;4.60;1.42;;;;;;;3.07;49.66;100942.03;4501069;31;34708;-73
2022/01/29 04:16:13;;;;;;;4.12;1.27;;;;;;;2.90;49.93;100922.63;4486101;31;33126;-74
2022/01/29 04:18:41;;;;;;;8.48;1.75;;;;;;;3.09;49.45;100930.06;4485244;32;33647;-74
2022/01/29 04:21:09;;;;;;;5.68;1.80;;;;;;;2.90;50.18;100919.94;4472763;32;32724;-73
2022/01/29 04:23:39;;;;;;;8.50;1.73;;;;;;;3.26;49.75;100915.03;4472948;32;33871;-73
2022/01/29 04:26:07;;;;;;;4.55;1.60;;;;;;;2.70;51.02;100918.03;4487233;32;34229;-74
2022/01/29 04:28:41;;;;;;;5.87;2.10;;;;;;;3.03;50.30;100902.63;4472806;32;34657;-73
2022/01/29 04:31:16;;;;;;;5.18;1.83;;;;;;;3.02;49.99;100909.91;4486950;32;35161;-75
2022/01/29 04:33:47;;;;;;;9.23;3.45;;;;;;;3.09;49.94;100904.81;4473640;32;34568;-74
2022/01/29 04:36:15;;;;;;;4.53;1.60;;;;;;;2.95;50.29;100903.28;4472819;32;32886;-74
2022/01/29 04:38:43;;;;;;;5.85;1.92;;;;;;;3.07;49.94;100893.22;4485547;32;34349;-74
2022/01/29 04:41:13;;;;;;;7.22;2.17;;;;;;;3.15;49.84;100897.00;4486996;32;34428;-75
2022/01/29 04:43:40;;;;;;;5.43;1.50;;;;;;;3.40;49.55;100895.72;4459904;32;32503;-75
2022/01/29 04:46:10;;;;;;;4.40;1.58;;;;;;;3.61;49.32;100898.41;4486919;32;33114;-74
2022/01/29 04:48:43;;;;;;;9.07;2.20;;;;;;;3.29;49.80;100895.78;4446617;32;33277;-74
2022/01/29 04:51:11;;;;;;;7.90;2.33;;;;;;;3.54;49.21;100897.22;4494444;31;34645;-74
2022/01/29 04:53:41;;;;;;;13.57;4.53;;;;;;;3.62;48.79;100886.56;4489033;31;34605;-74
2022/01/29 04:56:11;;;;;;;5.18;1.60;;;;;;;4.02;48.07;100892.00;4502716;31;33144;-74
2022/01/29 04:58:42;;;;;;;4.18;1.30;;;;;;;3.79;48.70;100888.66;4488500;31;34086;-74
2022/01/29 05:01:09;;;;;;;7.18;1.80;;;;;;;4.01;48.33;100890.28;4488739;31;34209;-74
2022/01/29 05:03:37;;;;;;;5.10;1.30;;;;;;;4.02;48.15;100880.28;4488318;31;34015;-74
2022/01/29 05:06:10;;;;;;;6.80;1.77;;;;;;;3.99;48.04;100889.56;4488806;31;33106;-74
2022/01/29 05:08:37;;;;;;;4.22;1.48;;;;;;;4.06;47.95;100892.59;4502480;31;33689;-75
2022/01/29 05:11:06;;;;;;;6.90;2.00;;;;;;;4.04;48.21;100895.44;4488323;31;34324;-74
2022/01/29 05:13:41;;;;;;;7.40;2.50;;;;;;;3.87;48.77;100898.84;4488679;31;33885;-74
2022/01/29 05:27:27;;;;;;;10.13;4.03;;;;;;;4.16;48.59;100923.38;4502318;31;34284;-75
2022/01/29 05:29:58;;;;;;;9.68;3.53;;;;;;;4.45;48.23;100927.03;4487815;31;33275;-74
2022/01/29 05:32:28;;;;;;;12.13;4.03;;;;;;;4.27;48.25;100918.69;4473952;31;32995;-75
2022/01/29 05:34:56;;;;;;;7.75;3.15;;;;;;;4.53;48.24;100927.22;4474969;31;32415;-75
2022/01/29 05:37:40;;;;;;;6.45;2.30;;;;;;;4.59;48.20;100925.75;4490112;31;33906;-74
2022/01/29 05:40:08;;;;;;;8.23;2.75;;;;;;;4.67;48.11;100925.91;4502519;31;34412;-75
2022/01/29 05:42:36;;;;;;;12.43;5.00;;;;;;;4.34;48.95;100924.44;4502079;31;34287;-75
2022/01/29 05:45:06;;;;;;;8.23;2.80;;;;;;;4.38;48.89;100925.03;4502611;31;34752;-74
2022/01/29 05:47:35;;;;;;;5.82;2.17;;;;;;;4.37;48.72;100932.31;4487987;31;34036;-75
2022/01/29 05:50:04;;;;;;;5.75;2.10;;;;;;;4.61;48.18;100921.03;4488257;31;33858;-74
2022/01/29 05:52:33;;;;;;;21.10;11.57;;;;;;;4.76;47.83;100926.94;4488777;31;34379;-75
2022/01/29 05:55:07;;;;;;;10.25;3.30;;;;;;;4.79;47.75;100930.22;4502095;31;34629;-74
2022/01/29 05:57:40;;;;;;;5.82;2.10;;;;;;;4.76;47.72;100927.78;4488462;31;34064;-74
2022/01/29 06:00:11;;;;;;;7.62;3.10;;;;;;;4.61;48.15;100942.78;4488855;31;33958;-75
2022/01/29 06:02:41;;;;;;;6.97;3.67;;;;;;;4.61;48.16;100942.78;4487942;31;33023;-74
2022/01/29 06:05:14;;;;;;;8.90;3.53;;;;;;;4.47;48.36;100952.22;4500959;31;34799;-73
2022/01/29 06:07:48;;;;;;;6.97;3.05;;;;;;;4.53;48.41;100946.25;4459077;32;31823;-72
2022/01/29 06:10:27;;;;;;;7.00;2.80;;;;;;;4.69;48.01;100952.97;4473678;31;34256;-72
2022/01/29 06:13:02;;;;;;;7.57;2.00;;;;;;;4.63;48.22;100962.53;4472562;32;35223;-72
2022/01/29 06:15:37;;;;;;;7.78;2.55;;;;;;;4.72;47.80;100958.13;4461967;31;32476;-72
2022/01/29 06:18:06;;;;;;;8.30;3.10;;;;;;;4.70;48.25;100957.41;4488107;31;33333;-72
2022/01/29 06:20:34;;;;;;;6.95;2.40;;;;;;;4.69;48.31;100963.84;4487958;31;34458;-73
2022/01/29 06:23:03;;;;;;;8.07;2.58;;;;;;;4.68;48.15;100970.28;4487717;31;34487;-72
2022/01/29 06:25:31;;;;;;;11.23;3.83;;;;;;;4.56;48.46;100958.66;4501919;31;33939;-72
2022/01/29 06:27:58;;;;;;;11.23;4.47;;;;;;;4.63;48.59;100959.81;4501928;31;33303;-73
2022/01/29 06:30:29;;;;;;;8.98;3.85;;;;;;;4.70;48.47;100960.13;4487535;31;33149;-72
2022/01/29 06:32:57;;;;;;;12.37;3.40;;;;;;;4.53;48.62;100962.56;4488228;31;34645;-72
2022/01/29 06:35:24;;;;;;;9.27;2.58;;;;;;;4.54;48.57;100956.13;4487728;31;34258;-72
2022/01/29 06:37:52;;;;;;;13.80;4.10;;;;;;;4.63;48.38;100954.38;4500915;31;33451;-72
2022/01/29 06:40:25;;;;;;;11.38;3.35;;;;;;;4.77;48.50;100964.88;4487681;31;33771;-72
2022/01/29 06:42:58;;;;;;;8.77;3.33;;;;;;;4.63;49.04;100967.97;4487135;31;34462;-72
2022/01/29 06:45:25;;;;;;;12.27;3.40;;;;;;;4.54;49.06;100958.84;4487852;31;33930;-72
2022/01/29 06:47:59;;;;;;;14.25;4.32;;;;;;;4.59;49.35;100961.97;4501829;31;33385;-72
2022/01/29 06:50:27;;;;;;;8.55;3.50;;;;;;;4.21;50.39;100962.72;4487270;31;32133;-72
2022/01/29 06:52:58;;;;;;;11.02;3.58;;;;;;;4.35;50.44;100955.19;4472358;32;34466;-72
2022/01/29 06:55:30;;;;;;;8.05;3.58;;;;;;;4.45;50.24;100956.94;4494985;31;34273;-72
2022/01/29 06:58:04;;;;;;;12.10;3.90;;;;;;;4.60;49.97;100951.94;4487852;31;33483;-69
2022/01/29 07:00:51;;;;;;;15.07;5.15;;;;;;;4.47;50.76;100957.66;4490419;31;33705;-72
2022/01/29 07:03:19;;;;;;;11.32;3.33;;;;;;;4.70;53.18;100980.03;4501677;31;34355;-72
2022/01/29 07:05:49;;;;;;;11.23;2.78;;;;;;;4.77;51.09;100974.88;4473994;31;32677;-73
2022/01/29 07:08:17;;;;;;;14.07;2.97;;;;;;;4.87;50.25;100971.19;4487208;31;31485;-71
2022/01/29 07:10:46;;;;;;;11.23;3.65;;;;;;;4.74;50.26;100975.16;4487346;31;33940;-72
2022/01/29 07:13:22;;;;;;;8.55;3.10;;;;;;;4.58;50.63;100975.69;4474670;31;32982;-72
2022/01/29 07:15:51;;;;;;;9.18;3.58;;;;;;;4.60;50.17;100976.41;4501518;31;33793;-72
2022/01/29 07:18:18;;;;;;;9.38;3.10;;;;;;;4.35;50.51;100964.19;4487460;31;33255;-72
2022/01/29 07:20:47;;;;;;;9.48;3.03;;;;;;;4.45;50.43;100970.53;4487175;31;33692;-72
2022/01/29 07:23:15;;;;;;;12.23;3.87;;;;;;;4.36;50.96;100981.38;4487347;31;35281;-72
2022/01/29 07:25:44;;;;;;;13.43;3.50;;;;;;;4.37;51.45;100985.81;4487395;31;34536;-72
2022/01/29 07:28:14;;;;;;;11.68;3.35;;;;;;;4.60;50.90;100980.00;4487270;31;31917;-72
2022/01/29 07:30:47;;;;;;;8.43;3.22;;;;;;;4.61;50.75;100989.00;4501645;31;33974;-72
2022/01/29 07:33:15;;;;;;;10.52;3.62;;;;;;;4.86;50.05;100985.78;4501542;31;34341;-72
2022/01/29 07:35:45;;;;;;;12.55;2.85;;;;;;;4.65;51.00;100990.44;4501538;31;33837;-71
2022/01/29 07:38:14;;;;;;;10.55;3.25;;;;;;;4.34;51.84;100991.50;4496356;31;33314;-72
2022/01/29 07:40:43;;;;;;;9.07;3.35;;;;;;;4.71;50.88;100992.63;4493996;31;33677;-72
2022/01/29 07:43:11;;;;;;;10.18;3.10;;;;;;;4.48;51.36;100991.16;4472072;32;34214;-72
2022/01/29 07:45:39;;;;;;;21.35;3.85;;;;;;;4.96;50.41;100983.09;4458315;32;34778;-72
2022/01/29 07:48:07;;;;;;;10.30;3.62;;;;;;;4.80;50.82;100989.06;4471372;32;34158;-72
2022/01/29 07:50:35;;;;;;;9.10;3.42;;;;;;;4.92;50.48;100990.66;4459115;31;34823;-73
2022/01/29 07:53:02;;;;;;;10.90;3.00;;;;;;;4.86;50.81;100982.19;4486761;31;34530;-73
2022/01/29 07:55:33;;;;;;;9.75;3.65;;;;;;;4.42;51.98;100991.69;4486117;31;34518;-73
2022/01/29 07:58:02;;;;;;;12.20;5.68;;;;;;;4.77;51.50;100980.31;4487083;31;33337;-72
2022/01/29 08:00:35;;;;;;;13.73;4.78;;;;;;;4.89;51.21;100985.50;4487677;31;34534;-72
2022/01/29 08:03:03;;;;;;;11.52;4.68;;;;;;;5.10;50.56;100989.97;4487034;31;33625;-73
2022/01/29 08:05:33;;;;;;;10.00;3.33;;;;;;;4.47;51.96;100995.72;4473891;31;32647;-73
2022/01/29 08:08:01;;;;;;;13.40;3.00;;;;;;;4.47;51.68;100984.84;4501218;31;33471;-72
2022/01/29 08:10:32;;;;;;;36.17;14.75;;;;;;;4.36;52.17;100990.38;4501171;31;33748;-73
2022/01/29 08:13:03;;;;;;;16.50;5.05;;;;;;;4.34;52.55;100988.78;4501109;31;34478;-73
2022/01/29 08:15:31;;;;;;;13.52;4.53;;;;;;;4.59;52.12;101001.88;4487264;31;33925;-73
2022/01/29 08:18:06;;;;;;;12.98;4.07;;;;;;;4.50;51.67;101000.03;4487306;31;33370;-73
2022/01/29 08:20:36;;;;;;;10.23;2.78;;;;;;;4.79;51.16;100995.50;4474308;31;33419;-73
2022/01/29 08:23:07;;;;;;;17.42;7.68;;;;;;;5.09;50.23;100990.97;4487223;31;33839;-73
2022/01/29 08:25:38;;;;;;;23.30;10.02;;;;;;;4.48;51.96;100996.56;4486897;31;34419;-73
2022/01/29 08:28:08;;;;;;;19.35;7.97;;;;;;;4.85;51.97;100989.50;4486666;31;33491;-73
2022/01/29 08:30:39;;;;;;;13.38;3.72;;;;;;;4.57;51.69;100993.00;4501010;31;33730;-73
2022/01/29 08:33:08;;;;;;;15.98;5.75;;;;;;;5.01;50.27;100988.97;4486926;31;34547;-73
2022/01/29 08:35:36;;;;;;;11.12;4.10;;;;;;;5.20;50.05;100990.84;4473595;31;33037;-73
2022/01/29 08:38:04;;;;;;;11.15;3.60;;;;;;;5.42;48.78;101001.41;4486688;31;34076;-73
2022/01/29 08:40:32;;;;;;;10.35;3.42;;;;;;;5.40;48.42;101003.44;4485896;31;34789;-73
2022/01/29 08:43:08;;;;;;;9.10;3.00;;;;;;;5.65;47.62;100995.69;4485426;31;34907;-73
2022/01/29 08:45:37;;;;;;;7.65;2.33;;;;;;;5.10;48.18;100996.28;4458249;31;33378;-73
2022/01/29 08:48:16;;;;;;;10.98;2.58;;;;;;;5.20;47.20;100994.38;4486813;31;33915;-73
2022/01/29 08:50:46;;;;;;;8.95;2.47;;;;;;;5.40;47.15;100997.97;4476402;31;33418;-73
2022/01/29 08:53:18;;;;;;;24.35;6.22;;;;;;;5.46;46.93;101002.84;4469179;31;33810;-73
2022/01/29 08:55:45;;;;;;;14.75;5.45;;;;;;;5.52;46.60;101002.28;4485164;31;32628;-72
2022/01/29 08:58:13;;;;;;;13.62;4.22;;;;;;;5.20;47.78;101007.16;4472781;31;33333;-72
2022/01/29 09:00:44;;;;;;;13.32;4.65;;;;;;;5.50;46.40;101017.91;4483686;31;34379;-72
2022/01/29 09:03:16;;;;;;;6.40;2.10;;;;;;;5.43;46.72;101008.59;4472428;31;32953;-73
2022/01/29 09:05:45;;;;;;;10.20;5.00;;;;;;;5.61;45.59;101009.59;4470918;31;33004;-75
2022/01/29 09:08:15;;;;;;;14.48;3.00;;;;;;;5.10;46.18;101020.75;4487731;31;33250;-75
2022/01/29 09:10:42;;;;;;;31.83;12.82;;;;;;;5.34;46.26;101017.59;4474695;31;33692;-75
2022/01/29 09:13:12;;;;;;;14.55;6.25;;;;;;;4.74;46.55;101008.66;4487670;31;34308;-75
2022/01/29 09:15:39;;;;;;;10.95;4.50;;;;;;;5.33;46.00;101006.84;4474897;31;32370;-75
2022/01/29 09:18:09;;;;;;;9.60;3.35;;;;;;;5.47;45.43;101015.47;4472984;31;33346;-75
2022/01/29 09:20:40;;;;;;;22.00;7.32;;;;;;;5.44;43.56;101014.88;4474111;31;33188;-75
2022/01/29 09:23:10;;;;;;;9.27;3.25;;;;;;;5.53;43.79;101022.19;4471845;31;34376;-75
2022/01/29 09:25:41;;;;;;;7.43;2.75;;;;;;;5.68;43.24;101025.34;4474381;31;32517;-74
2022/01/29 09:28:11;;;;;;;13.45;2.87;;;;;;;5.06;43.52;101010.31;4487471;31;33547;-74
2022/01/29 09:30:39;;;;;;;6.82;2.08;;;;;;;5.47;43.22;101011.88;4475034;31;32089;-74
2022/01/29 09:33:06;;;;;;;8.35;1.87;;;;;;;5.77;43.17;100995.38;4475374;31;35125;-74
2022/01/29 09:35:34;;;;;;;5.70;1.87;;;;;;;5.79;41.16;101003.41;4475182;31;32329;-74
2022/01/29 09:38:06;;;;;;;6.35;1.50;;;;;;;5.85;41.24;101005.53;4488123;31;31751;-74
2022/01/29 09:40:35;;;;;;;6.53;2.00;;;;;;;5.40;42.60;101002.56;4502518;31;34454;-74
2022/01/29 09:43:05;;;;;;;10.05;3.85;;;;;;;5.67;42.85;100996.37;4475092;31;32950;-74
2022/01/29 09:45:33;;;;;;;9.00;3.30;;;;;;;5.86;43.18;100993.59;4486629;31;33914;-73
2022/01/29 09:48:02;;;;;;;33.35;13.07;;;;;;;5.44;43.93;101007.59;4474762;31;32867;-74
2022/01/29 09:50:32;;;;;;;14.05;5.22;;;;;;;5.73;43.87;100988.50;4487123;31;34276;-74
2022/01/29 09:53:01;;;;;;;12.05;3.65;;;;;;;6.13;43.77;100980.09;4487076;31;34346;-74
2022/01/29 09:55:29;;;;;;;11.18;2.62;;;;;;;5.92;44.27;100969.37;4473956;31;32360;-74
2022/01/29 09:58:00;;;;;;;9.65;2.20;;;;;;;6.18;44.11;100972.31;4487243;31;33187;-73
2022/01/29 10:00:28;;;;;;;12.30;3.20;;;;;;;6.65;43.61;100955.00;4485889;31;33825;-74
2022/01/29 10:03:13;;;;;;;15.35;6.07;;;;;;;6.82;43.23;100946.84;4469744;32;34431;-74
2022/01/29 10:05:45;;;;;;;16.75;7.68;;;;;;;7.06;43.74;100948.13;4462147;31;32320;-74
2022/01/29 10:08:13;;;;;;;14.00;2.97;;;;;;;7.16;44.17;100948.87;4474937;31;34089;-74
2022/01/29 10:10:44;;;;;;;11.05;2.90;;;;;;;7.11;43.69;100943.06;4486283;31;33536;-74
2022/01/29 10:13:23;;;;;;;7.22;2.42;;;;;;;6.84;43.96;100933.06;4474453;31;34011;-74
2022/01/29 10:15:53;;;;;;;14.63;4.57;;;;;;;7.02;43.72;100941.25;4501576;31;33906;-74
2022/01/29 10:18:21;;;;;;;8.23;3.42;;;;;;;6.68;44.76;100935.59;4486865;31;34353;-74
2022/01/29 10:20:50;;;;;;;10.18;3.40;;;;;;;6.75;44.82;100942.16;4493422;31;34670;-74
2022/01/29 10:23:29;;;;;;;9.30;2.90;;;;;;;7.05;44.25;100938.22;4474303;31;33943;-74
2022/01/29 10:25:56;;;;;;;11.77;2.95;;;;;;;7.16;43.66;100935.22;4485724;31;34146;-75
2022/01/29 10:28:26;;;;;;;14.40;3.62;;;;;;;7.33;43.79;100939.81;4487375;31;32996;-75
2022/01/29 10:30:56;;;;;;;13.80;4.20;;;;;;;7.28;43.86;100928.50;4487199;31;34611;-75
2022/01/29 10:33:31;;;;;;;17.65;5.93;;;;;;;6.78;44.68;100933.66;4486325;31;35391;-74
2022/01/29 10:36:03;;;;;;;10.07;3.70;;;;;;;7.15;44.39;100937.09;4503596;31;35133;-75
2022/01/29 10:38:40;;;;;;;12.55;3.55;;;;;;;6.99;44.93;100927.91;4501965;31;33170;-75
2022/01/29 10:41:20;;;;;;;;;;;;;;;7.14;44.71;100927.22;4495966;31;31834;-75
2022/01/29 10:44:19;;;;;;;14.05;3.40;;;;;;;7.28;44.40;100918.44;4497281;31;33180;-73
2022/01/29 10:46:50;;;;;;;8.13;3.10;;;;;;;7.16;44.78;100921.56;4492963;31;34088;-74
2022/01/29 10:49:21;;;;;;;15.52;4.28;;;;;;;7.25;44.93;100915.19;4492895;31;33139;-75
2022/01/29 10:52:03;;;;;;;9.93;2.83;;;;;;;6.82;46.26;100913.25;4483406;31;34581;-75
2022/01/29 10:54:32;;;;;;;28.33;10.57;;;;;;;7.06;46.16;100913.50;4500885;31;34540;-75
2022/01/29 10:57:02;;;;;;;16.05;7.10;;;;;;;6.67;47.23;100909.34;4474209;31;32323;-75
2022/01/29 10:59:33;;;;;;;16.83;5.03;;;;;;;6.69;47.50;100910.91;4487484;31;33182;-75
2022/01/29 11:02:08;;;;;;;17.25;4.07;;;;;;;6.46;47.74;100912.38;4487329;31;33467;-75
2022/01/29 11:04:38;;;;;;;21.35;4.20;;;;;;;6.34;47.91;100903.53;4471988;32;32951;-75
2022/01/29 11:07:12;;;;;;;12.27;3.50;;;;;;;6.26;48.38;100901.56;4473619;31;32659;-75
2022/01/29 11:09:42;;;;;;;13.48;2.67;;;;;;;6.79;46.85;100903.50;4487437;31;33518;-75
2022/01/29 11:12:12;;;;;;;10.00;2.78;;;;;;;6.81;46.83;100901.47;4474451;31;33638;-75
2022/01/29 11:14:41;;;;;;;15.25;3.45;;;;;;;6.94;46.84;100898.37;4501515;31;35243;-75
2022/01/29 11:17:11;;;;;;;14.30;3.50;;;;;;;6.88;47.07;100891.66;4487907;31;34730;-75
2022/01/29 11:19:42;;;;;;;12.40;3.70;;;;;;;7.21;46.35;100891.94;4474516;31;32724;-75
2022/01/29 11:22:10;;;;;;;17.62;4.05;;;;;;;7.23;46.48;100871.66;4487522;31;34619;-75
2022/01/29 11:24:40;;;;;;;12.82;4.00;;;;;;;7.50;46.83;100876.12;4487332;31;34375;-75
2022/01/29 11:27:22;;;;;;;16.50;3.28;;;;;;;7.92;45.79;100873.44;4474337;31;33220;-75
2022/01/29 11:30:03;;;;;;;17.12;5.45;;;;;;;7.60;46.32;100870.56;4474243;31;33637;-74
2022/01/29 11:32:33;;;;;;;17.10;4.65;;;;;;;7.50;47.10;100858.88;4487411;31;33958;-75
2022/01/29 11:35:13;;;;;;;18.83;4.32;;;;;;;7.67;46.35;100865.31;4474377;31;33058;-75
2022/01/29 11:38:04;;;;;;;17.52;4.05;;;;;;;7.49;46.47;100852.56;4487336;31;34690;-75
2022/01/29 11:40:33;;;;;;;14.07;3.97;;;;;;;7.22;47.17;100849.97;4487894;31;32674;-75
2022/01/29 11:43:18;;;;;;;14.20;4.75;;;;;;;7.45;46.83;100853.03;4500295;31;33958;-74
2022/01/29 11:45:49;;;;;;;13.77;3.53;;;;;;;7.73;46.46;100842.81;4501245;31;34322;-73
2022/01/29 11:48:35;;;;;;;11.85;3.45;;;;;;;7.35;46.78;100850.41;4486927;31;32497;-74
2022/01/29 11:51:08;;;;;;;11.43;3.37;;;;;;;7.84;45.84;100831.56;4501352;31;34012;-73
2022/01/29 11:53:50;;;;;;;12.43;3.55;;;;;;;7.46;46.65;100831.03;4487300;31;33619;-74